TPL weather

Draughon Miller Central Texas Regional Airport
Temple, Texas, United States

Public forecast

Using degrees Fahrenheit for public forecast. Weather courtesy of forecast.io.

Current aviation weather report (METAR) for Draughon Miller Central Texas Regional Airport

Report is more than 2 hours old.

Retrieved 2020/07/10 00:51 UTC (2 hours ago):

KTPL 100051Z AUTO 18010KT 10SM CLR 35/21 A2986 RMK AO2 SLP097 T03500206

Closest aviation forecast (TAF) to Draughon Miller Central Texas Regional Airport

Closest forecast is Robert Gray Army Air Field Airport, 22.2 nm (41.2 km) WSW. Retrieved 2020-07-10 00:24 UTC (2 hours ago):

TAF KGRK 100000Z 1000/1106 13012KT 9999 FEW065 QNH2982INS BECMG 1102/1103 19009KT 9999 SKC QNH2994INS TX38/1022Z TN24/1012Z